Time;durP1;ratioP1;P1;durP2;ratioP2;P2;SDS_P1;SDS_P2;PMS_P1;PMS_P2;Temp;Humidity;BMP_temperature;BMP_pressure;BME280_temperature;BME280_humidity;BME280_pressure;Samples;Min_cycle;Max_cycle;Signal;HPM_P1;HPM_P2
2021/01/24 05:01:02;;;;;;;15.43;8.43;;;;;;;0.96;86.58;97868.41;6072999;23;20133;-58
2021/01/24 05:03:29;;;;;;;13.88;7.65;;;;;;;0.89;86.95;97862.34;4867924;29;20067;-58
2021/01/24 05:05:55;;;;;;;17.85;9.10;;;;;;;0.91;86.92;97868.25;4857771;29;20041;-60
2021/01/24 05:08:23;;;;;;;16.00;8.40;;;;;;;0.79;87.43;97862.00;4870759;29;20041;-61
2021/01/24 05:10:54;;;;;;;15.07;8.65;;;;;;;0.79;87.21;97862.81;4862337;29;20409;-58
2021/01/24 05:13:26;;;;;;;13.55;7.70;;;;;;;0.71;87.65;97849.75;4875987;29;20469;-61
2021/01/24 05:15:58;;;;;;;13.95;8.07;;;;;;;0.75;87.99;97847.47;4889857;29;20040;-58
2021/01/24 05:18:25;;;;;;;12.63;7.82;;;;;;;0.76;87.84;97857.09;4875074;29;20229;-61
2021/01/24 05:20:54;;;;;;;14.32;8.77;;;;;;;0.78;87.79;97860.34;4875958;29;20506;-59
2021/01/24 05:23:25;;;;;;;13.25;8.00;;;;;;;0.75;87.92;97844.81;4876689;29;20047;-60
2021/01/24 05:25:54;;;;;;;14.65;8.57;;;;;;;0.79;87.54;97844.19;4891398;29;20051;-58
2021/01/24 05:28:22;;;;;;;20.83;8.35;;;;;;;0.77;87.87;97848.91;4890950;29;20044;-60
2021/01/24 05:30:49;;;;;;;14.70;8.00;;;;;;;0.69;87.84;97859.81;4876087;29;20044;-58
2021/01/24 05:33:19;;;;;;;13.43;7.95;;;;;;;0.62;88.76;97856.34;4874577;29;20485;-59
2021/01/24 05:35:50;;;;;;;15.90;8.77;;;;;;;0.67;88.04;97862.66;4875320;29;20490;-59
2021/01/24 05:38:28;;;;;;;13.35;8.13;;;;;;;0.62;88.45;97853.69;4891070;29;20075;-59
2021/01/24 05:41:07;;;;;;;14.52;8.48;;;;;;;0.61;88.28;97855.53;4875403;29;20040;-59
2021/01/24 05:43:35;;;;;;;18.00;8.88;;;;;;;0.59;88.02;97859.44;4890466;29;20126;-58
2021/01/24 05:46:01;;;;;;;16.10;9.52;;;;;;;0.62;88.24;97862.47;4876360;29;20040;-58
2021/01/24 05:48:28;;;;;;;16.50;9.32;;;;;;;0.66;88.27;97865.53;4890837;29;20127;-59
2021/01/24 05:50:53;;;;;;;17.42;8.77;;;;;;;0.61;88.25;97863.50;4876239;29;20048;-59
2021/01/24 05:53:19;;;;;;;17.08;9.15;;;;;;;0.60;88.04;97853.91;4875170;29;20120;-59
2021/01/24 05:55:45;;;;;;;17.23;9.70;;;;;;;0.56;87.81;97854.56;4875353;29;20044;-60
2021/01/24 05:58:18;;;;;;;17.42;10.93;;;;;;;0.60;87.29;97858.41;4889882;29;20129;-59
2021/01/24 06:00:45;;;;;;;19.20;10.38;;;;;;;0.61;87.86;97852.88;4876137;29;20490;-59
2021/01/24 06:03:12;;;;;;;18.15;10.05;;;;;;;0.60;88.03;97851.25;4874138;29;20126;-59
2021/01/24 06:05:38;;;;;;;19.45;10.65;;;;;;;0.52;87.75;97854.16;4889621;29;20048;-59
2021/01/24 06:08:06;;;;;;;15.75;9.10;;;;;;;0.63;87.84;97855.31;4890029;29;20051;-59
2021/01/24 06:10:32;;;;;;;16.88;9.38;;;;;;;0.60;86.68;97845.09;4889512;29;20473;-59
2021/01/24 06:13:02;;;;;;;17.90;10.52;;;;;;;0.57;86.97;97846.38;4890918;29;20040;-59
2021/01/24 06:15:29;;;;;;;18.30;9.90;;;;;;;0.65;86.92;97856.75;4892717;29;20073;-60
2021/01/24 06:17:57;;;;;;;21.30;10.50;;;;;;;0.65;87.47;97850.63;4873437;29;20044;-60
2021/01/24 06:20:30;;;;;;;16.52;8.98;;;;;;;0.66;86.59;97853.06;4890732;29;20107;-59
2021/01/24 06:23:03;;;;;;;18.02;9.68;;;;;;;0.66;87.01;97839.78;4874469;29;20048;-61
2021/01/24 06:25:47;;;;;;;18.00;9.90;;;;;;;0.67;86.49;97846.72;4875847;29;20048;-61
2021/01/24 06:28:26;;;;;;;15.50;8.40;;;;;;;0.64;86.20;97844.47;4890843;29;20147;-58
2021/01/24 06:30:52;;;;;;;14.90;9.15;;;;;;;0.60;86.67;97845.09;4874940;29;20074;-60
2021/01/24 06:33:21;;;;;;;15.93;9.10;;;;;;;0.55;86.40;97848.44;4877862;29;20037;-58
2021/01/24 06:35:48;;;;;;;15.43;8.63;;;;;;;0.53;87.13;97853.13;4857075;29;20040;-58
2021/01/24 06:38:34;;;;;;;14.35;7.72;;;;;;;0.57;87.71;97861.50;4871447;29;20162;-58
2021/01/24 06:41:03;;;;;;;14.38;8.13;;;;;;;0.53;87.82;97855.78;4864328;29;20048;-58
2021/01/24 06:43:45;;;;;;;14.57;7.40;;;;;;;0.57;86.82;97857.00;4889846;29;20047;-58
2021/01/24 06:46:26;;;;;;;16.30;8.45;;;;;;;0.47;87.68;97864.59;4889174;29;20052;-58
2021/01/24 06:48:52;;;;;;;16.77;8.52;;;;;;;0.50;87.66;97864.19;4888101;29;20040;-59
2021/01/24 06:51:41;;;;;;;15.77;8.75;;;;;;;0.56;87.36;97868.66;4889253;29;20155;-58
2021/01/24 06:54:15;;;;;;;33.40;16.60;;;;;;;0.60;87.55;97867.19;4891383;29;20315;-58
2021/01/24 06:56:46;;;;;;;20.15;10.32;;;;;;;0.57;86.28;97864.97;4890562;29;20044;-59
2021/01/24 06:59:12;;;;;;;20.83;11.27;;;;;;;0.63;86.67;97858.81;4888371;29;20075;-59
2021/01/24 07:01:39;;;;;;;17.20;9.45;;;;;;;0.69;86.42;97867.78;4890090;29;20036;-59
2021/01/24 07:04:20;;;;;;;18.08;9.73;;;;;;;0.72;85.55;97872.66;4888203;29;20055;-60
2021/01/24 07:06:57;;;;;;;16.27;8.82;;;;;;;0.76;85.33;97873.88;4859073;29;20040;-60
2021/01/24 07:09:27;;;;;;;19.23;8.52;;;;;;;0.82;86.17;97877.50;4857733;29;20081;-58
2021/01/24 07:12:03;;;;;;;16.92;9.77;;;;;;;0.80;85.21;97876.91;4889974;29;20067;-59
2021/01/24 07:14:35;;;;;;;18.08;9.38;;;;;;;0.86;85.51;97889.34;4876249;29;20399;-59
2021/01/24 07:17:07;;;;;;;14.95;8.65;;;;;;;0.88;85.51;97885.47;4889184;29;20036;-59
2021/01/24 07:19:49;;;;;;;;;;;;;;;0.81;85.08;97887.31;4882728;29;20072;-58
2021/01/24 07:22:26;;;;;;;18.95;9.25;;;;;;;0.92;85.29;97886.66;4883563;29;20021;-62
2021/01/24 07:24:53;;;;;;;17.77;8.45;;;;;;;1.04;84.37;97890.25;4883979;29;20645;-59
2021/01/24 07:27:21;;;;;;;16.20;8.00;;;;;;;1.11;84.08;97892.06;4865448;29;20064;-58
2021/01/24 07:29:47;;;;;;;18.95;8.77;;;;;;;1.17;83.66;97884.00;4869142;29;20650;-59
2021/01/24 07:32:18;;;;;;;17.25;8.68;;;;;;;1.30;83.63;97883.09;4883834;29;20494;-58
2021/01/24 07:34:46;;;;;;;18.55;8.98;;;;;;;1.60;83.38;97886.75;4864126;29;20040;-60
2021/01/24 07:37:13;;;;;;;13.85;8.05;;;;;;;1.64;83.37;97889.78;4871674;29;20048;-60
2021/01/24 07:39:44;;;;;;;18.05;9.55;;;;;;;1.46;82.28;97895.88;4888101;29;20074;-59
2021/01/24 07:42:10;;;;;;;17.67;8.30;;;;;;;1.72;82.38;97894.84;4876626;29;20048;-58
2021/01/24 07:44:37;;;;;;;15.25;8.20;;;;;;;1.88;82.06;97891.59;4877801;29;20037;-59
2021/01/24 07:47:04;;;;;;;15.38;8.30;;;;;;;1.83;81.61;97888.78;4864799;29;20588;-59
2021/01/24 07:49:30;;;;;;;17.33;8.20;;;;;;;2.04;81.61;97896.34;4869334;29;20043;-59
2021/01/24 07:51:55;;;;;;;14.00;7.95;;;;;;;2.04;80.91;97906.19;4883370;29;20042;-61
2021/01/24 07:54:22;;;;;;;13.73;7.65;;;;;;;2.12;81.45;97893.38;4880025;29;20063;-59
2021/01/24 07:56:49;;;;;;;16.63;8.77;;;;;;;2.06;80.34;97896.13;4875340;29;20055;-59
2021/01/24 07:59:18;;;;;;;14.80;8.43;;;;;;;2.18;80.96;97891.69;4875316;29;20258;-60
2021/01/24 08:01:45;;;;;;;15.18;8.68;;;;;;;2.27;80.18;97893.03;4859783;29;21673;-60
2021/01/24 08:04:15;;;;;;;15.38;8.90;;;;;;;2.19;81.10;97891.44;4871516;29;20041;-59
2021/01/24 08:06:41;;;;;;;16.02;8.48;;;;;;;2.30;80.84;97895.25;4873783;29;20044;-59
2021/01/24 08:09:09;;;;;;;15.30;8.05;;;;;;;2.05;81.19;97900.66;4884931;29;20036;-58
2021/01/24 08:11:35;;;;;;;18.15;9.48;;;;;;;2.03;82.99;97899.25;4875936;29;20119;-58
2021/01/24 08:14:03;;;;;;;16.77;9.48;;;;;;;2.16;81.62;97899.91;4875971;29;20502;-59
2021/01/24 08:16:41;;;;;;;16.40;9.30;;;;;;;2.31;81.56;97902.19;4891969;29;20051;-60
2021/01/24 08:19:10;;;;;;;17.17;8.90;;;;;;;2.26;80.31;97910.06;4875855;29;20052;-59
2021/01/24 08:21:37;;;;;;;17.52;8.80;;;;;;;2.38;80.45;97902.94;4891772;29;20036;-59
2021/01/24 08:24:03;;;;;;;18.23;9.95;;;;;;;2.48;79.94;97897.06;4891368;29;20044;-59
2021/01/24 08:26:29;;;;;;;19.92;10.23;;;;;;;2.38;79.38;97891.47;4872537;29;20096;-59
2021/01/24 08:28:56;;;;;;;17.35;8.90;;;;;;;2.47;80.40;97904.25;4872635;29;20040;-59
2021/01/24 08:31:23;;;;;;;17.10;9.27;;;;;;;2.53;79.98;97903.38;4873692;29;20060;-60
2021/01/24 08:33:52;;;;;;;15.95;9.57;;;;;;;2.59;79.60;97900.84;4876168;29;20116;-58
2021/01/24 08:36:21;;;;;;;18.85;10.85;;;;;;;2.70;79.55;97902.75;4876854;29;20047;-58
2021/01/24 08:38:49;;;;;;;21.25;10.65;;;;;;;2.60;79.49;97902.47;4875053;29;20491;-59
2021/01/24 08:41:16;;;;;;;19.98;11.55;;;;;;;2.53;79.85;97906.06;4869252;29;20055;-58
2021/01/24 08:43:43;;;;;;;19.92;9.68;;;;;;;2.67;80.36;97904.00;4890921;29;20040;-58
2021/01/24 08:46:24;;;;;;;17.77;10.80;;;;;;;2.61;79.93;97912.09;4890462;29;20082;-59
2021/01/24 08:49:09;;;;;;;21.15;11.27;;;;;;;2.63;79.74;97904.69;4892099;29;20257;-58
2021/01/24 08:51:49;;;;;;;24.00;11.85;;;;;;;2.35;80.36;97903.38;4876396;29;20389;-61
2021/01/24 08:54:23;;;;;;;24.55;12.30;;;;;;;2.26;80.66;97910.06;4896163;29;20056;-59
2021/01/24 08:56:49;;;;;;;26.88;14.02;;;;;;;2.20;81.20;97902.94;4886611;29;20100;-59
2021/01/24 08:59:16;;;;;;;31.17;15.88;;;;;;;2.04;82.27;97904.34;4889161;29;20052;-60
2021/01/24 09:01:50;;;;;;;26.00;13.98;;;;;;;2.16;82.13;97905.25;4891257;29;20312;-58
2021/01/24 09:04:20;;;;;;;24.65;12.45;;;;;;;2.01;81.79;97904.78;4873880;29;20053;-59
2021/01/24 09:07:11;;;;;;;20.98;11.43;;;;;;;1.95;81.81;97897.69;4864412;29;20388;-58
2021/01/24 09:09:39;;;;;;;21.60;10.70;;;;;;;2.04;82.66;97909.69;4881090;29;20068;-58
2021/01/24 09:12:05;;;;;;;20.55;10.57;;;;;;;2.17;81.94;97911.41;4889440;29;20066;-60
2021/01/24 09:14:32;;;;;;;20.65;11.20;;;;;;;3.11;86.16;97902.81;4889888;29;20413;-59
2021/01/24 09:17:01;;;;;;;22.40;11.90;;;;;;;2.64;81.13;97901.81;4892537;29;20047;-58
2021/01/24 09:19:28;;;;;;;19.77;9.80;;;;;;;2.39;81.21;97903.75;4875177;29;20052;-59
2021/01/24 09:21:54;;;;;;;21.13;10.95;;;;;;;2.25;81.36;97915.59;4875866;29;20040;-58
2021/01/24 09:24:22;;;;;;;17.80;9.43;;;;;;;2.32;81.64;97900.34;4871257;29;20048;-59
2021/01/24 09:26:50;;;;;;;17.25;9.15;;;;;;;2.34;81.16;97912.41;4883068;29;20107;-58
2021/01/24 09:29:17;;;;;;;14.88;8.68;;;;;;;2.34;81.18;97901.75;4882780;29;20506;-59
2021/01/24 09:31:42;;;;;;;19.45;11.00;;;;;;;2.43;81.70;97905.75;4877417;29;20063;-58
2021/01/24 09:34:08;;;;;;;18.92;10.23;;;;;;;2.72;80.75;97906.81;4882996;29;20518;-59
2021/01/24 09:36:34;;;;;;;14.65;7.97;;;;;;;2.52;80.75;97907.09;4873380;29;20032;-59
2021/01/24 09:39:01;;;;;;;16.38;8.68;;;;;;;2.60;80.09;97913.97;4871217;29;20613;-58
2021/01/24 09:41:27;;;;;;;14.02;8.05;;;;;;;2.96;79.99;97904.25;4886500;29;20123;-59
2021/01/24 09:43:53;;;;;;;13.88;7.68;;;;;;;2.81;79.04;97907.31;4888622;29;20130;-59
2021/01/24 09:46:18;;;;;;;13.68;7.57;;;;;;;2.63;80.83;97904.69;4870721;29;20124;-59
2021/01/24 09:48:44;;;;;;;11.75;6.80;;;;;;;2.54;80.07;97906.84;4872475;29;20541;-60
2021/01/24 09:51:10;;;;;;;12.90;7.30;;;;;;;2.74;79.50;97901.28;4871056;29;20127;-59
2021/01/24 09:53:39;;;;;;;16.48;9.30;;;;;;;2.66;80.28;97904.22;4871077;29;20123;-60
2021/01/24 09:56:06;;;;;;;12.48;8.15;;;;;;;2.79;80.27;97912.06;4859657;29;20564;-59
2021/01/24 09:58:33;;;;;;;15.52;8.35;;;;;;;2.73;79.56;97910.31;4872073;29;20036;-59
2021/01/24 10:00:59;;;;;;;14.98;7.95;;;;;;;2.66;80.83;97910.38;4869576;29;20131;-59
2021/01/24 10:03:25;;;;;;;14.85;8.52;;;;;;;2.86;80.89;97910.13;4878383;29;20167;-59
2021/01/24 10:05:51;;;;;;;14.38;8.35;;;;;;;2.83;81.81;97921.25;4891073;29;20417;-62
2021/01/24 10:08:18;;;;;;;15.38;8.65;;;;;;;2.94;80.65;97917.81;4882045;29;20044;-59
2021/01/24 10:10:45;;;;;;;16.90;8.75;;;;;;;2.85;81.08;97912.00;4878469;29;20361;-58
2021/01/24 10:13:12;;;;;;;14.25;8.40;;;;;;;2.77;81.08;97914.16;4889412;29;20044;-61
2021/01/24 10:15:40;;;;;;;13.48;7.85;;;;;;;2.93;80.49;97913.53;4890101;29;20044;-60
2021/01/24 10:18:06;;;;;;;13.43;7.40;;;;;;;2.73;80.95;97905.78;4874863;29;20067;-58
2021/01/24 10:20:32;;;;;;;13.75;7.80;;;;;;;2.97;80.60;97912.03;4890323;29;20044;-60
2021/01/24 10:22:58;;;;;;;12.60;8.57;;;;;;;3.09;81.06;97914.75;4875086;29;20048;-61
2021/01/24 10:25:24;;;;;;;12.98;7.55;;;;;;;2.61;81.17;97914.78;4874894;29;20046;-62
2021/01/24 10:27:51;;;;;;;13.95;7.97;;;;;;;2.66;81.71;97915.72;4891155;29;20040;-61
2021/01/24 10:30:18;;;;;;;13.05;7.78;;;;;;;2.68;81.38;97918.97;4889755;29;20055;-60
2021/01/24 10:32:44;;;;;;;14.45;7.78;;;;;;;2.85;81.54;97913.84;4874544;29;20350;-60
2021/01/24 10:35:09;;;;;;;18.40;9.52;;;;;;;2.83;81.06;97924.75;4890689;29;20040;-59
2021/01/24 10:37:36;;;;;;;15.57;7.30;;;;;;;2.92;80.63;97923.38;4873725;29;20151;-60
2021/01/24 10:40:04;;;;;;;12.80;7.30;;;;;;;3.25;80.40;97925.56;4873213;29;20046;-60
2021/01/24 10:42:30;;;;;;;12.20;7.00;;;;;;;3.34;79.65;97925.28;4877624;29;20119;-60
2021/01/24 10:44:59;;;;;;;12.30;7.18;;;;;;;3.47;79.56;97917.03;4877805;29;20434;-60
2021/01/24 10:47:26;;;;;;;15.40;6.65;;;;;;;3.46;78.45;97916.22;4877679;29;20457;-60
2021/01/24 10:49:51;;;;;;;11.25;5.95;;;;;;;3.39;79.27;97918.19;4870312;29;20055;-60
2021/01/24 10:52:17;;;;;;;10.57;5.72;;;;;;;3.30;79.80;97921.41;4882343;29;20589;-60
2021/01/24 10:54:43;;;;;;;13.27;6.82;;;;;;;3.49;78.91;97913.09;4884997;29;20068;-61
2021/01/24 10:57:09;;;;;;;17.33;9.98;;;;;;;3.47;78.52;97909.00;4891807;29;20044;-61
2021/01/24 10:59:35;;;;;;;14.40;8.48;;;;;;;3.59;78.21;97918.69;4873179;29;20180;-59
2021/01/24 11:02:01;;;;;;;16.23;9.27;;;;;;;3.69;79.36;97917.31;4873421;29;20044;-60
2021/01/24 11:04:31;;;;;;;14.02;8.57;;;;;;;3.94;78.03;97924.03;4890271;29;20524;-60
2021/01/24 11:06:56;;;;;;;16.20;9.80;;;;;;;3.94;78.07;97916.03;4879684;29;20343;-59
2021/01/24 11:09:22;;;;;;;14.00;8.48;;;;;;;3.97;77.55;97917.44;4864812;29;20409;-60
2021/01/24 11:11:48;;;;;;;11.25;7.57;;;;;;;4.17;76.95;97920.53;4892151;29;20054;-59
2021/01/24 11:14:14;;;;;;;11.32;6.88;;;;;;;4.21;76.87;97919.03;4890948;29;20103;-62
2021/01/24 11:16:40;;;;;;;12.65;6.75;;;;;;;4.04;77.24;97925.34;4892629;29;20115;-59
2021/01/24 11:19:05;;;;;;;11.98;6.63;;;;;;;4.14;76.97;97921.03;4892496;29;20115;-59
2021/01/24 11:21:31;;;;;;;10.85;6.65;;;;;;;4.13;76.99;97926.63;4892691;29;20034;-60
2021/01/24 11:23:57;;;;;;;8.80;5.93;;;;;;;4.03;77.10;97926.38;4893036;29;20036;-60
2021/01/24 11:26:25;;;;;;;12.38;6.95;;;;;;;4.03;78.21;97924.53;4892928;29;20058;-59
2021/01/24 11:28:52;;;;;;;10.13;6.55;;;;;;;3.87;77.56;97922.53;4890856;29;20067;-60
2021/01/24 11:31:18;;;;;;;11.05;7.10;;;;;;;4.06;78.16;97916.03;4891559;29;20498;-60
2021/01/24 11:33:45;;;;;;;10.93;7.03;;;;;;;4.08;79.05;97918.47;4893411;29;20059;-60
2021/01/24 11:36:12;;;;;;;10.88;6.68;;;;;;;4.04;78.85;97920.78;4877475;29;20048;-59
2021/01/24 11:38:38;;;;;;;11.52;7.05;;;;;;;4.14;79.02;97918.38;4892090;29;20178;-59
2021/01/24 11:41:05;;;;;;;11.18;7.30;;;;;;;4.14;78.05;97913.00;4871347;29;20036;-61
2021/01/24 11:43:31;;;;;;;11.52;6.88;;;;;;;4.16;78.58;97912.75;4871421;29;20406;-61
2021/01/24 11:46:03;;;;;;;10.95;6.80;;;;;;;4.16;78.63;97915.44;4875180;29;20055;-61
2021/01/24 11:48:29;;;;;;;9.60;5.78;;;;;;;4.04;78.11;97915.44;4874164;29;20045;-61
2021/01/24 11:50:55;;;;;;;9.70;5.70;;;;;;;3.79;79.15;97920.22;4873637;29;20045;-63
2021/01/24 11:53:21;;;;;;;11.10;5.88;;;;;;;3.85;78.83;97925.44;4871063;29;20279;-59
2021/01/24 11:55:48;;;;;;;13.45;6.85;;;;;;;3.88;79.51;97925.00;4892107;29;20064;-60
2021/01/24 11:58:17;;;;;;;11.80;5.20;;;;;;;3.27;80.76;97926.16;4893304;29;20103;-60
2021/01/24 12:00:42;;;;;;;9.00;5.45;;;;;;;3.65;81.08;97919.63;4886243;29;20119;-60
2021/01/24 12:03:08;;;;;;;9.73;5.60;;;;;;;3.39;81.30;97926.19;4872419;29;20048;-60
2021/01/24 12:05:34;;;;;;;8.52;5.43;;;;;;;3.13;82.11;97919.38;4890360;29;20048;-59
2021/01/24 12:08:00;;;;;;;11.55;5.88;;;;;;;2.82;82.09;97922.28;4891893;29;20183;-60
2021/01/24 12:10:26;;;;;;;8.88;5.65;;;;;;;3.40;81.70;97917.16;4893225;29;20044;-60
2021/01/24 12:12:53;;;;;;;9.52;6.22;;;;;;;3.22;81.70;97920.72;4893085;29;20533;-60
2021/01/24 12:15:19;;;;;;;12.88;6.97;;;;;;;3.39;83.13;97914.69;4872496;29;20048;-59
2021/01/24 12:17:46;;;;;;;10.02;6.63;;;;;;;3.05;81.77;97914.38;4876944;29;20066;-60
2021/01/24 12:20:12;;;;;;;10.55;6.15;;;;;;;2.93;82.28;97916.19;4886299;29;20332;-59
2021/01/24 12:22:38;;;;;;;8.60;5.97;;;;;;;2.92;82.47;97906.56;4876593;29;20526;-61
2021/01/24 12:25:05;;;;;;;8.27;5.40;;;;;;;3.28;81.98;97908.28;4893030;29;20091;-60
2021/01/24 12:27:32;;;;;;;11.45;6.30;;;;;;;2.98;82.45;97905.66;4874901;29;20091;-60
2021/01/24 12:29:58;;;;;;;9.88;6.53;;;;;;;3.20;82.01;97897.94;4872135;29;20052;-59
2021/01/24 12:32:24;;;;;;;10.85;6.60;;;;;;;3.47;80.92;97904.47;4877503;29;20490;-59
2021/01/24 12:34:50;;;;;;;10.40;6.13;;;;;;;3.31;81.99;97907.03;4872263;29;20041;-60
2021/01/24 12:37:16;;;;;;;11.00;5.88;;;;;;;3.30;82.21;97902.72;4871143;29;20036;-59
2021/01/24 12:39:42;;;;;;;10.95;6.18;;;;;;;3.42;81.90;97904.38;4875930;29;20391;-60
2021/01/24 12:42:08;;;;;;;10.25;6.10;;;;;;;3.83;80.31;97905.34;4877511;29;20044;-60
2021/01/24 12:44:34;;;;;;;9.30;5.95;;;;;;;4.11;79.75;97901.97;4875428;29;20046;-60
2021/01/24 12:47:00;;;;;;;8.88;5.15;;;;;;;3.68;80.88;97905.81;4892398;29;20130;-59
2021/01/24 12:49:26;;;;;;;8.45;4.95;;;;;;;3.92;78.84;97909.31;4875985;29;20128;-60
2021/01/24 12:51:51;;;;;;;9.32;5.45;;;;;;;3.63;80.23;97906.50;4892162;29;20625;-61
2021/01/24 12:54:17;;;;;;;6.53;3.88;;;;;;;3.55;80.01;97908.69;4875974;29;20051;-60
2021/01/24 12:56:42;;;;;;;5.43;3.70;;;;;;;3.42;80.96;97906.22;4873311;29;20047;-60
2021/01/24 12:59:09;;;;;;;6.10;4.10;;;;;;;3.26;80.95;97908.50;4885339;29;20099;-60
2021/01/24 13:01:35;;;;;;;7.25;4.95;;;;;;;3.64;80.17;97913.47;4885221;29;20119;-61
2021/01/24 13:04:01;;;;;;;6.85;4.32;;;;;;;3.52;80.24;97911.81;4877433;29;20119;-60
2021/01/24 13:06:26;;;;;;;7.10;3.92;;;;;;;3.63;80.45;97906.50;4884482;29;20068;-60
2021/01/24 13:08:52;;;;;;;4.78;3.08;;;;;;;3.68;79.81;97908.47;4888708;29;20481;-60
2021/01/24 13:11:17;;;;;;;5.90;3.92;;;;;;;3.83;79.29;97902.66;4875452;29;20038;-60
2021/01/24 13:13:44;;;;;;;6.63;4.07;;;;;;;3.99;78.91;97902.78;4892444;29;20409;-60
2021/01/24 13:16:11;;;;;;;7.47;4.45;;;;;;;3.96;79.17;97903.25;4888902;29;20052;-60
2021/01/24 13:18:37;;;;;;;7.80;4.43;;;;;;;4.12;78.76;97908.94;4891222;29;20239;-59
2021/01/24 13:21:03;;;;;;;5.28;3.50;;;;;;;4.04;78.48;97909.31;4875862;29;20055;-60
2021/01/24 13:23:29;;;;;;;7.55;4.00;;;;;;;4.02;79.00;97911.38;4875716;29;20063;-59
2021/01/24 13:25:54;;;;;;;5.57;3.65;;;;;;;4.08;78.54;97915.78;4891736;29;20119;-59
2021/01/24 13:28:20;;;;;;;6.07;3.67;;;;;;;4.23;77.61;97916.13;4877403;29;20044;-59
2021/01/24 13:30:47;;;;;;;6.80;4.20;;;;;;;4.21;77.49;97918.22;4879174;29;20494;-60
2021/01/24 13:33:12;;;;;;;5.57;4.20;;;;;;;4.11;77.98;97915.34;4878868;29;20120;-60
2021/01/24 13:35:38;;;;;;;7.25;4.28;;;;;;;4.16;78.37;97915.44;4880112;29;20486;-60
2021/01/24 13:38:04;;;;;;;6.30;4.07;;;;;;;4.16;79.27;97921.59;4875910;29;20123;-59
2021/01/24 13:40:29;;;;;;;7.53;4.25;;;;;;;4.06;79.59;97921.38;4857815;29;20052;-60
2021/01/24 13:42:55;;;;;;;7.95;4.93;;;;;;;4.17;79.60;97925.91;4862126;29;20063;-61
2021/01/24 13:45:21;;;;;;;9.43;5.00;;;;;;;4.17;79.61;97917.06;4877049;29;20077;-60
2021/01/24 13:47:46;;;;;;;6.35;4.07;;;;;;;4.24;78.56;97923.13;4877460;29;20040;-60
2021/01/24 13:50:12;;;;;;;8.07;4.60;;;;;;;4.21;79.41;97927.06;4875850;29;20040;-60
2021/01/24 13:52:38;;;;;;;7.63;5.70;;;;;;;4.01;79.87;97926.63;4876673;29;20144;-61
2021/01/24 13:55:05;;;;;;;7.85;4.60;;;;;;;4.09;78.86;97928.13;4882568;29;20509;-59
2021/01/24 13:57:31;;;;;;;6.47;4.35;;;;;;;3.43;79.06;97935.38;4878761;29;20414;-60
2021/01/24 13:59:57;;;;;;;8.30;4.80;;;;;;;3.87;79.49;97936.72;4869118;29;20092;-62
2021/01/24 14:02:22;;;;;;;6.10;4.47;;;;;;;3.66;80.40;97942.63;4869624;29;20048;-59
2021/01/24 14:04:48;;;;;;;6.97;4.72;;;;;;;3.76;80.45;97940.19;4852121;29;20509;-59
2021/01/24 14:07:14;;;;;;;6.97;4.30;;;;;;;3.44;80.69;97950.38;4854633;29;20048;-59
2021/01/24 14:09:39;;;;;;;8.80;4.25;;;;;;;3.21;81.59;97948.44;4868462;29;20044;-60
2021/01/24 14:12:06;;;;;;;6.57;4.95;;;;;;;2.97;80.99;97949.41;4887820;29;20071;-59
2021/01/24 14:14:31;;;;;;;6.35;4.18;;;;;;;3.14;82.25;97954.91;4872054;29;20393;-59
2021/01/24 14:16:58;;;;;;;5.03;3.63;;;;;;;3.06;81.85;97955.22;4885491;29;20078;-59
2021/01/24 14:19:25;;;;;;;6.45;4.40;;;;;;;3.20;82.19;97956.69;4887527;29;20048;-60
2021/01/24 14:21:51;;;;;;;7.78;4.50;;;;;;;3.41;81.94;97960.69;4873605;29;20083;-59
2021/01/24 14:24:16;;;;;;;5.82;3.75;;;;;;;3.40;83.16;97954.53;4888827;29;20066;-60
2021/01/24 14:26:42;;;;;;;7.43;4.40;;;;;;;3.41;83.26;97963.38;4876999;29;20539;-59
2021/01/24 14:29:08;;;;;;;6.25;4.63;;;;;;;3.17;81.31;97963.28;4853769;29;20430;-59
2021/01/24 14:31:36;;;;;;;7.32;4.18;;;;;;;3.35;81.82;97966.94;4868302;29;20569;-60
2021/01/24 14:34:03;;;;;;;7.45;4.03;;;;;;;3.28;81.88;97970.53;4883454;29;20116;-59
2021/01/24 14:36:29;;;;;;;7.07;3.85;;;;;;;3.25;81.93;97970.16;4883356;29;20052;-60
2021/01/24 14:38:56;;;;;;;6.20;4.72;;;;;;;3.35;82.09;97975.75;4868553;29;20442;-62
2021/01/24 14:41:22;;;;;;;5.75;4.05;;;;;;;3.28;82.00;97978.53;4871054;29;20059;-59
2021/01/24 14:43:48;;;;;;;6.03;4.13;;;;;;;3.26;82.92;97974.47;4871485;29;20048;-59
2021/01/24 14:46:14;;;;;;;8.00;5.10;;;;;;;3.14;81.79;97977.09;4887459;29;20558;-59
2021/01/24 14:48:40;;;;;;;6.63;4.25;;;;;;;3.13;81.75;97975.44;4888329;29;20043;-59
2021/01/24 14:51:06;;;;;;;6.32;3.65;;;;;;;3.22;82.11;97984.81;4888083;29;20046;-59
2021/01/24 14:53:33;;;;;;;6.60;4.43;;;;;;;3.04;82.24;97981.34;4888620;29;20048;-59
2021/01/24 14:55:59;;;;;;;6.25;3.33;;;;;;;3.09;82.86;97990.31;4868430;29;20044;-59
2021/01/24 14:58:25;;;;;;;3.75;2.97;;;;;;;2.96;82.08;97984.31;4872491;29;20036;-61
2021/01/24 15:00:51;;;;;;;2.67;2.20;;;;;;;2.77;82.53;97989.66;4874511;29;20060;-59
2021/01/24 15:03:17;;;;;;;2.78;1.80;;;;;;;2.81;83.17;97992.72;4873582;29;20064;-59
2021/01/24 15:05:44;;;;;;;3.85;2.50;;;;;;;2.80;82.61;97991.06;4870936;29;20397;-59
2021/01/24 15:08:11;;;;;;;3.45;2.60;;;;;;;2.81;83.59;97987.38;4888920;29;20247;-59
2021/01/24 15:10:36;;;;;;;2.50;2.15;;;;;;;2.82;82.71;97997.00;4887767;29;20076;-59
2021/01/24 15:13:02;;;;;;;4.63;2.40;;;;;;;2.69;82.17;97991.81;4873688;29;20064;-59
2021/01/24 15:15:28;;;;;;;2.40;2.10;;;;;;;2.66;80.89;97992.25;4889370;29;20661;-59
2021/01/24 15:17:53;;;;;;;2.20;1.80;;;;;;;2.62;81.43;97993.75;4889845;29;20822;-58
2021/01/24 15:20:19;;;;;;;5.25;1.80;;;;;;;2.78;82.24;97995.81;4890067;29;20056;-58
2021/01/24 15:22:45;;;;;;;2.03;1.65;;;;;;;2.67;82.23;97997.38;4890250;29;20288;-59
2021/01/24 15:25:10;;;;;;;1.95;1.75;;;;;;;2.62;83.31;98005.25;4892369;29;20079;-59
2021/01/24 15:27:36;;;;;;;2.03;1.80;;;;;;;2.53;82.73;97999.41;4893319;29;20160;-59
2021/01/24 15:30:03;;;;;;;3.13;2.25;;;;;;;2.75;82.74;98002.44;4889113;29;20036;-58
2021/01/24 15:32:28;;;;;;;3.58;2.00;;;;;;;2.69;82.53;98002.50;4892849;29;20099;-58
2021/01/24 15:34:54;;;;;;;2.05;1.77;;;;;;;2.46;83.07;98000.50;4893578;29;20056;-59
2021/01/24 15:37:19;;;;;;;11.23;6.97;;;;;;;2.45;82.64;98005.00;4890889;29;20040;-59
2021/01/24 15:39:45;;;;;;;11.52;7.03;;;;;;;2.52;83.36;98007.63;4891412;29;20052;-60
2021/01/24 15:42:11;;;;;;;10.23;6.07;;;;;;;2.54;82.92;98016.19;4893583;29;20042;-60
2021/01/24 15:44:36;;;;;;;12.93;6.80;;;;;;;2.61;83.44;98011.63;4893060;29;20546;-59
2021/01/24 15:47:03;;;;;;;9.85;6.20;;;;;;;2.38;82.97;98014.13;4890711;29;20681;-59
2021/01/24 15:49:28;;;;;;;7.97;4.32;;;;;;;2.27;83.33;98020.19;4893341;29;20130;-58
2021/01/24 15:51:54;;;;;;;5.40;3.50;;;;;;;2.30;83.44;98025.91;4875200;29;20135;-59
2021/01/24 15:54:21;;;;;;;5.88;4.18;;;;;;;2.20;84.06;98030.88;4890047;29;20124;-60
2021/01/24 15:56:46;;;;;;;3.83;3.10;;;;;;;1.98;83.96;98026.97;4874520;29;20048;-59
2021/01/24 15:59:13;;;;;;;4.93;3.65;;;;;;;1.97;84.14;98030.69;4885118;29;20040;-59
2021/01/24 16:01:39;;;;;;;6.97;4.53;;;;;;;2.18;84.44;98019.66;4879434;29;20044;-59
2021/01/24 16:04:06;;;;;;;7.10;4.63;;;;;;;1.87;84.77;98023.16;4884218;29;20055;-59
2021/01/24 16:06:35;;;;;;;5.28;3.92;;;;;;;1.90;84.83;98024.59;4865871;29;20465;-59
2021/01/24 16:09:07;;;;;;;4.28;3.45;;;;;;;1.85;84.47;98019.91;4869438;29;20048;-58
2021/01/24 16:11:32;;;;;;;;;;;;;;;1.87;85.05;98022.34;4889197;29;20056;-59
2021/01/24 16:13:58;;;;;;;2.67;2.20;;;;;;;1.86;85.27;98028.72;4871085;29;20287;-59
2021/01/24 16:16:24;;;;;;;3.33;2.40;;;;;;;1.87;86.77;98033.00;4873903;29;20040;-58
2021/01/24 16:18:50;;;;;;;6.95;4.22;;;;;;;1.68;84.82;98029.47;4862702;29;20145;-58
2021/01/24 16:21:16;;;;;;;3.80;2.63;;;;;;;1.65;85.41;98032.56;4858413;29;20047;-59
2021/01/24 16:23:42;;;;;;;4.80;3.22;;;;;;;1.76;85.25;98030.03;4855106;29;20040;-58
2021/01/24 16:26:12;;;;;;;4.50;3.40;;;;;;;1.66;85.62;98029.69;4856961;29;20120;-59
2021/01/24 16:28:42;;;;;;;5.07;3.55;;;;;;;1.90;85.16;98029.94;4854661;29;20045;-58
2021/01/24 16:31:08;;;;;;;6.18;3.85;;;;;;;1.76;84.59;98043.34;4871307;29;20196;-59
2021/01/24 16:33:34;;;;;;;3.80;2.90;;;;;;;1.69;85.55;98034.59;4855908;29;20039;-60
2021/01/24 16:35:59;;;;;;;3.95;3.22;;;;;;;1.78;85.79;98043.94;4872809;29;20044;-59
2021/01/24 16:38:26;;;;;;;4.57;3.35;;;;;;;1.87;85.21;98038.34;4857219;29;20045;-61